Nrc Columbia — WDA8288 — position and weather

sailwx.info

Track history (hours):
 
Tides and Currents Weather Stations Pressure Air Temp Water Temp Dewpoint Dewpoint Depression Visibility Wind Speed Wind Dir Waves Ship Positions

Nrc Columbia

Owner: National Response Corporation, The Woodlands, TX. More information available from US FCC via Universal Licensing System and Coast Guard Vessel Documentation Center.

Last reported at 2017-Jun-26 20:49 UTC. Time now 2017-Jun-27 00:01 UTC.
Position N 48°50' W 122°43'.

Length 35 m.

Type: Pollution control. MMSI: 366710170.

Date/timePositionNaut miles runAvg speedWind from/ knotsBaromVisibWave heightAir tempDewpointWater temp
2017-Jun-26 20:49N 48°50' W 122°43'0 0.0
2017-Jun-26 20:28N 48°50' W 122°43'0 0.0
2017-Jun-26 17:11N 48°50' W 122°43'0 0.0
2017-Jun-26 06:52N 48°50' W 122°43'0 0.0
2017-Jun-26 03:49N 48°50' W 122°43'0 0.0
2017-Jun-25 17:52N 48°50' W 122°43'0 0.0
2017-Jun-25 12:55N 48°50' W 122°43'0 0.0
2017-Jun-25 11:13N 48°50' W 122°43'0 0.0
2017-Jun-25 10:58N 48°50' W 122°43'0 0.0
2017-Jun-25 06:10N 48°50' W 122°43'0 0.0
2017-Jun-24 18:37N 48°50' W 122°43'0 0.0
2017-Jun-24 18:04N 48°50' W 122°43'0 0.0
2017-Jun-24 17:49N 48°50' W 122°43'0 0.0
2017-Jun-24 11:43N 48°50' W 122°43'0 0.0
2017-Jun-24 11:28N 48°50' W 122°43'0 0.0
2017-Jun-24 07:46N 48°50' W 122°43'0 0.0
2017-Jun-24 06:19N 48°50' W 122°43'0 0.0
2017-Jun-24 05:50N 48°50' W 122°43'0 0.1
2017-Jun-24 05:10N 48°50' W 122°43'0 0.0
2017-Jun-24 04:26N 48°50' W 122°43'0 0.0
2017-Jun-24 03:02N 48°50' W 122°43'0 0.0
2017-Jun-24 02:32N 48°50' W 122°43'0 0.0
2017-Jun-23 15:19N 48°50' W 122°43'0 0.0
2017-Jun-23 13:28N 48°50' W 122°43'0 0.0
2017-Jun-23 12:55N 48°50' W 122°43'0 0.0
2017-Jun-23 11:28N 48°50' W 122°43'0 0.1
2017-Jun-23 10:58N 48°50' W 122°43'0 0.0
2017-Jun-23 10:10N 48°50' W 122°43'0 0.0
2017-Jun-23 09:31N 48°50' W 122°43'0 0.0
2017-Jun-23 09:10N 48°50' W 122°43'0 0.0
2017-Jun-23 03:28N 48°50' W 122°43'0 0.0
2017-Jun-23 02:01N 48°50' W 122°43'0 0.0
2017-Jun-22 23:08N 48°50' W 122°43'0 0.0
2017-Jun-22 19:22N 48°50' W 122°43'0 0.0
2017-Jun-22 17:53N 48°50' W 122°43'0 0.0
2017-Jun-22 15:55N 48°50' W 122°43'0 0.0
2017-Jun-22 15:01N 48°50' W 122°43'0 0.0
2017-Jun-22 13:28N 48°50' W 122°43'0 0.0
2017-Jun-22 11:37N 48°50' W 122°43'0 0.0
2017-Jun-22 09:31N 48°50' W 122°43'0 0.0
2017-Jun-22 08:38N 48°50' W 122°43'0 0.0
2017-Jun-22 07:56N 48°50' W 122°43'0 0.1
2017-Jun-22 07:17N 48°50' W 122°43'0 0.0
2017-Jun-22 06:49N 48°50' W 122°43'0 0.0
2017-Jun-22 06:25N 48°50' W 122°43'0 0.1
2017-Jun-22 05:47N 48°50' W 122°43'0 0.0
2017-Jun-22 03:59N 48°50' W 122°43'0 0.0
2017-Jun-22 03:23N 48°50' W 122°43'0 0.0
2017-Jun-21 13:07N 48°50' W 122°43'0 0.0
2017-Jun-21 12:19N 48°50' W 122°43'0 0.0
2017-Jun-21 11:58N 48°50' W 122°43'0 0.0
2017-Jun-21 11:19N 48°50' W 122°43'0 0.0
2017-Jun-21 10:56N 48°50' W 122°43'0 0.0
2017-Jun-21 05:19N 48°50' W 122°43'0 0.0
2017-Jun-21 04:52N 48°50' W 122°43'0 0.0
2017-Jun-21 04:05N 48°50' W 122°43'0 0.3
2017-Jun-21 04:00N 48°50' W 122°43'4 6.7
2017-Jun-21 03:27N 48°46' W 122°43'3 7.3
2017-Jun-21 03:00N 48°43' W 122°40'4 7.3
2017-Jun-21 02:30N 48°41' W 122°37'3 6.4
2017-Jun-21 01:59N 48°43' W 122°32'1 0.4
2017-Jun-20 22:55N 48°43' W 122°31'0 0.0
2017-Jun-20 22:28N 48°43' W 122°31'3 6.5
2017-Jun-20 22:00N 48°41' W 122°34'3 5.7
2017-Jun-20 21:29N 48°42' W 122°39'3 6.1
2017-Jun-20 20:59N 48°44' W 122°41'6 1.0
2017-Jun-20 15:04N 48°50' W 122°43'0 0.0
2017-Jun-20 14:49N 48°50' W 122°43'0 0.0
2017-Jun-20 12:37N 48°50' W 122°43'0 0.0
2017-Jun-20 12:28N 48°50' W 122°43'0 0.0
2017-Jun-20 11:58N 48°50' W 122°43'0 0.0
2017-Jun-20 11:19N 48°50' W 122°43'0 0.0
2017-Jun-20 10:37N 48°50' W 122°43'0 0.0
2017-Jun-19 21:07N 48°50' W 122°43'0 0.0
2017-Jun-19 20:43N 48°50' W 122°43'0 0.0
2017-Jun-19 17:01N 48°50' W 122°43'0 0.1
2017-Jun-19 16:55N 48°50' W 122°43'0 0.0
2017-Jun-19 15:28N 48°50' W 122°43'0 0.0
2017-Jun-19 13:52N 48°50' W 122°43'0 0.0
2017-Jun-19 13:28N 48°50' W 122°43'0 0.0
2017-Jun-19 12:43N 48°50' W 122°43'0 0.0
2017-Jun-19 12:13N 48°50' W 122°43'0 0.0
2017-Jun-19 10:43N 48°50' W 122°43'0 0.0
2017-Jun-19 10:25N 48°50' W 122°43'0 0.0
2017-Jun-19 09:52N 48°50' W 122°43'0 0.0
2017-Jun-19 09:25N 48°50' W 122°43'0 0.0
2017-Jun-19 01:25N 48°50' W 122°43'0 0.1
2017-Jun-19 00:58N 48°50' W 122°43'0 0.1
2017-Jun-19 00:22N 48°50' W 122°43'0 0.1
2017-Jun-18 23:43N 48°50' W 122°43'0 0.2
2017-Jun-18 23:28N 48°50' W 122°43'0 0.1
2017-Jun-18 22:49N 48°50' W 122°43'0 0.0
2017-Jun-18 22:19N 48°50' W 122°43'0 0.1
2017-Jun-18 21:55N 48°50' W 122°43'0 0.0
2017-Jun-18 21:22N 48°50' W 122°43'0 0.1
2017-Jun-18 20:43N 48°50' W 122°43'0 0.0
2017-Jun-18 20:25N 48°50' W 122°43'0 0.0
2017-Jun-18 19:40N 48°50' W 122°43'0 0.0
2017-Jun-18 19:25N 48°50' W 122°43'0 0.0
2017-Jun-18 18:58N 48°50' W 122°43'0 0.0
2017-Jun-18 18:28N 48°50' W 122°43'0 0.0
2017-Jun-18 17:37N 48°50' W 122°43'0 0.1
2017-Jun-18 17:13N 48°50' W 122°43'0 0.1
2017-Jun-18 16:55N 48°50' W 122°43'0 0.0
2017-Jun-18 15:31N 48°50' W 122°43'0 0.1
2017-Jun-18 15:25N 48°50' W 122°43'0 0.0
2017-Jun-18 12:55N 48°50' W 122°43'0 0.1
2017-Jun-18 12:28N 48°50' W 122°43'0 0.1
2017-Jun-18 11:55N 48°50' W 122°43'0 0.0
2017-Jun-18 09:10N 48°50' W 122°43'0 0.0
2017-Jun-18 00:55N 48°50' W 122°43'0 0.0
2017-Jun-17 23:31N 48°50' W 122°43'0 0.0
2017-Jun-17 21:43N 48°50' W 122°43'0 0.0
2017-Jun-17 21:22N 48°50' W 122°43'0 0.0
2017-Jun-17 20:58N 48°50' W 122°43'0 0.0
2017-Jun-17 12:58N 48°50' W 122°43'0 0.0
2017-Jun-17 12:13N 48°50' W 122°43'0 0.0
2017-Jun-17 11:40N 48°50' W 122°43'0 0.0
2017-Jun-17 11:25N 48°50' W 122°43'0 0.1
2017-Jun-17 10:58N 48°50' W 122°43'0 0.0
2017-Jun-17 09:19N 48°50' W 122°43'0 0.0
2017-Jun-17 08:49N 48°50' W 122°43'0 0.0
2017-Jun-16 21:43N 48°50' W 122°43'0 0.0
2017-Jun-16 21:25N 48°50' W 122°43'  
Track history (hours):
 
Tides and Currents Weather Stations Pressure Air Temp Water Temp Dewpoint Dewpoint Depression Visibility Wind Speed Wind Dir Waves Ship Positions

Nrc Columbia

Owner: National Response Corporation, The Woodlands, TX. More information available from US FCC via Universal Licensing System and Coast Guard Vessel Documentation Center.

Last reported at 2017-Jun-26 20:49 UTC. Time now 2017-Jun-27 00:01 UTC.
Position N 48°50' W 122°43'.

Length 35 m.

Type: Pollution control. MMSI: 366710170.

Date/timePositionNaut miles runAvg speedWind from/ knotsBaromVisibWave heightAir tempDewpointWater temp
2017-Jun-26 20:49N 48°50' W 122°43'0 0.0
2017-Jun-26 20:28N 48°50' W 122°43'0 0.0
2017-Jun-26 17:11N 48°50' W 122°43'0 0.0
2017-Jun-26 06:52N 48°50' W 122°43'0 0.0
2017-Jun-26 03:49N 48°50' W 122°43'0 0.0
2017-Jun-25 17:52N 48°50' W 122°43'0 0.0
2017-Jun-25 12:55N 48°50' W 122°43'0 0.0
2017-Jun-25 11:13N 48°50' W 122°43'0 0.0
2017-Jun-25 10:58N 48°50' W 122°43'0 0.0
2017-Jun-25 06:10N 48°50' W 122°43'0 0.0
2017-Jun-24 18:37N 48°50' W 122°43'0 0.0
2017-Jun-24 18:04N 48°50' W 122°43'0 0.0
2017-Jun-24 17:49N 48°50' W 122°43'0 0.0
2017-Jun-24 11:43N 48°50' W 122°43'0 0.0
2017-Jun-24 11:28N 48°50' W 122°43'0 0.0
2017-Jun-24 07:46N 48°50' W 122°43'0 0.0
2017-Jun-24 06:19N 48°50' W 122°43'0 0.0
2017-Jun-24 05:50N 48°50' W 122°43'0 0.1
2017-Jun-24 05:10N 48°50' W 122°43'0 0.0
2017-Jun-24 04:26N 48°50' W 122°43'0 0.0
2017-Jun-24 03:02N 48°50' W 122°43'0 0.0
2017-Jun-24 02:32N 48°50' W 122°43'0 0.0
2017-Jun-23 15:19N 48°50' W 122°43'0 0.0
2017-Jun-23 13:28N 48°50' W 122°43'0 0.0
2017-Jun-23 12:55N 48°50' W 122°43'0 0.0
2017-Jun-23 11:28N 48°50' W 122°43'0 0.1
2017-Jun-23 10:58N 48°50' W 122°43'0 0.0
2017-Jun-23 10:10N 48°50' W 122°43'0 0.0
2017-Jun-23 09:31N 48°50' W 122°43'0 0.0
2017-Jun-23 09:10N 48°50' W 122°43'0 0.0
2017-Jun-23 03:28N 48°50' W 122°43'0 0.0
2017-Jun-23 02:01N 48°50' W 122°43'0 0.0
2017-Jun-22 23:08N 48°50' W 122°43'0 0.0
2017-Jun-22 19:22N 48°50' W 122°43'0 0.0
2017-Jun-22 17:53N 48°50' W 122°43'0 0.0
2017-Jun-22 15:55N 48°50' W 122°43'0 0.0
2017-Jun-22 15:01N 48°50' W 122°43'0 0.0
2017-Jun-22 13:28N 48°50' W 122°43'0 0.0
2017-Jun-22 11:37N 48°50' W 122°43'0 0.0
2017-Jun-22 09:31N 48°50' W 122°43'0 0.0
2017-Jun-22 08:38N 48°50' W 122°43'0 0.0
2017-Jun-22 07:56N 48°50' W 122°43'0 0.1
2017-Jun-22 07:17N 48°50' W 122°43'0 0.0
2017-Jun-22 06:49N 48°50' W 122°43'0 0.0
2017-Jun-22 06:25N 48°50' W 122°43'0 0.1
2017-Jun-22 05:47N 48°50' W 122°43'0 0.0
2017-Jun-22 03:59N 48°50' W 122°43'0 0.0
2017-Jun-22 03:23N 48°50' W 122°43'0 0.0
2017-Jun-21 13:07N 48°50' W 122°43'0 0.0
2017-Jun-21 12:19N 48°50' W 122°43'0 0.0
2017-Jun-21 11:58N 48°50' W 122°43'0 0.0
2017-Jun-21 11:19N 48°50' W 122°43'0 0.0
2017-Jun-21 10:56N 48°50' W 122°43'0 0.0
2017-Jun-21 05:19N 48°50' W 122°43'0 0.0
2017-Jun-21 04:52N 48°50' W 122°43'0 0.0
2017-Jun-21 04:05N 48°50' W 122°43'0 0.3
2017-Jun-21 04:00N 48°50' W 122°43'4 6.7
2017-Jun-21 03:27N 48°46' W 122°43'3 7.3
2017-Jun-21 03:00N 48°43' W 122°40'4 7.3
2017-Jun-21 02:30N 48°41' W 122°37'3 6.4
2017-Jun-21 01:59N 48°43' W 122°32'1 0.4
2017-Jun-20 22:55N 48°43' W 122°31'0 0.0
2017-Jun-20 22:28N 48°43' W 122°31'3 6.5
2017-Jun-20 22:00N 48°41' W 122°34'3 5.7
2017-Jun-20 21:29N 48°42' W 122°39'3 6.1
2017-Jun-20 20:59N 48°44' W 122°41'6 1.0
2017-Jun-20 15:04N 48°50' W 122°43'0 0.0
2017-Jun-20 14:49N 48°50' W 122°43'0 0.0
2017-Jun-20 12:37N 48°50' W 122°43'0 0.0
2017-Jun-20 12:28N 48°50' W 122°43'0 0.0
2017-Jun-20 11:58N 48°50' W 122°43'0 0.0
2017-Jun-20 11:19N 48°50' W 122°43'0 0.0
2017-Jun-20 10:37N 48°50' W 122°43'0 0.0
2017-Jun-19 21:07N 48°50' W 122°43'0 0.0
2017-Jun-19 20:43N 48°50' W 122°43'0 0.0
2017-Jun-19 17:01N 48°50' W 122°43'0 0.1
2017-Jun-19 16:55N 48°50' W 122°43'0 0.0
2017-Jun-19 15:28N 48°50' W 122°43'0 0.0
2017-Jun-19 13:52N 48°50' W 122°43'0 0.0
2017-Jun-19 13:28N 48°50' W 122°43'0 0.0
2017-Jun-19 12:43N 48°50' W 122°43'0 0.0
2017-Jun-19 12:13N 48°50' W 122°43'0 0.0
2017-Jun-19 10:43N 48°50' W 122°43'0 0.0
2017-Jun-19 10:25N 48°50' W 122°43'0 0.0
2017-Jun-19 09:52N 48°50' W 122°43'0 0.0
2017-Jun-19 09:25N 48°50' W 122°43'0 0.0
2017-Jun-19 01:25N 48°50' W 122°43'0 0.1
2017-Jun-19 00:58N 48°50' W 122°43'0 0.1
2017-Jun-19 00:22N 48°50' W 122°43'0 0.1
2017-Jun-18 23:43N 48°50' W 122°43'0 0.2
2017-Jun-18 23:28N 48°50' W 122°43'0 0.1
2017-Jun-18 22:49N 48°50' W 122°43'0 0.0
2017-Jun-18 22:19N 48°50' W 122°43'0 0.1
2017-Jun-18 21:55N 48°50' W 122°43'0 0.0
2017-Jun-18 21:22N 48°50' W 122°43'0 0.1
2017-Jun-18 20:43N 48°50' W 122°43'0 0.0
2017-Jun-18 20:25N 48°50' W 122°43'0 0.0
2017-Jun-18 19:40N 48°50' W 122°43'0 0.0
2017-Jun-18 19:25N 48°50' W 122°43'0 0.0
2017-Jun-18 18:58N 48°50' W 122°43'0 0.0
2017-Jun-18 18:28N 48°50' W 122°43'0 0.0
2017-Jun-18 17:37N 48°50' W 122°43'0 0.1
2017-Jun-18 17:13N 48°50' W 122°43'0 0.1
2017-Jun-18 16:55N 48°50' W 122°43'0 0.0
2017-Jun-18 15:31N 48°50' W 122°43'0 0.1
2017-Jun-18 15:25N 48°50' W 122°43'0 0.0
2017-Jun-18 12:55N 48°50' W 122°43'0 0.1
2017-Jun-18 12:28N 48°50' W 122°43'0 0.1
2017-Jun-18 11:55N 48°50' W 122°43'0 0.0
2017-Jun-18 09:10N 48°50' W 122°43'0 0.0
2017-Jun-18 00:55N 48°50' W 122°43'0 0.0
2017-Jun-17 23:31N 48°50' W 122°43'0 0.0
2017-Jun-17 21:43N 48°50' W 122°43'0 0.0
2017-Jun-17 21:22N 48°50' W 122°43'0 0.0
2017-Jun-17 20:58N 48°50' W 122°43'0 0.0
2017-Jun-17 12:58N 48°50' W 122°43'0 0.0
2017-Jun-17 12:13N 48°50' W 122°43'0 0.0
2017-Jun-17 11:40N 48°50' W 122°43'0 0.0
2017-Jun-17 11:25N 48°50' W 122°43'0 0.1
2017-Jun-17 10:58N 48°50' W 122°43'0 0.0
2017-Jun-17 09:19N 48°50' W 122°43'0 0.0
2017-Jun-17 08:49N 48°50' W 122°43'0 0.0
2017-Jun-16 21:43N 48°50' W 122°43'0 0.0
2017-Jun-16 21:25N 48°50' W 122°43'  

Dump ship's entire track history